Aeroporto :
LOGIN :

Iscrizione | Disclaimer

   EN    FR    IT 

 










Sommario :    VFR   VFR Marginale   IFR   IFR Intensivo   IFR Molto Intensivo
Visibilità : 
Base nubi : 
>= 8 km
>= 3000ft
5 / 8 km
1000 / 3000 ft
1500m / 5 km
500 / 1000 ft
800 / 1500m
200 / 500 ft
< 800m
< 200 ft
Simboli :   Temporali  Nebbia  Neve Forte  Precipitazioni Forti  Vento > 20 kt
SIGMETs :   Varie  Temporali  Ghiacco  Turbolenza  Onda orograficha  Ceneri Vulcaniche






- Altitudine del aeroporto : 1058 ft
- Codice IATA : SCN


EDDR - Saarbrücken

ULTIMO METAR :
  • 121320Z 22012KT 9999 FEW020 BKN025TCU 06/03 Q1003 NOSIG

METARs OBSOLETI :
  • 121250Z 23014KT 200V260 9999 -SHRA FEW020 BKN025TCU 06/03 Q1003 NOSIG
  • 121220Z 22017KT 9999 FEW020 BKN025 06/02 Q1004 NOSIG
  • 121150Z 23019KT 9999 FEW017 BKN023 07/02 Q1004 NOSIG
  • 121120Z 22015KT 9999 FEW016 BKN021 07/03 Q1004 NOSIG
  • 121050Z 22017KT 9999 FEW016 BKN021 07/03 Q1004 NOSIG

TAF TAF EDDR
Valido dal 12 a 12 ore il 13 a 12 ore UTC


121100Z 1212/1312 21012KT 9999 BKN020
PROB30
TEMPO 1212/1218 22015G25KT 4000 SHRA BKN012 BKN020CB
BECMG 1215/1218 22006KT
TEMPO 1222/1308 4000 BR BKN008
PROB30
TEMPO 1308/1312 4000 DZRA BKN012



MetMap, La meteo Aeronautica in un colpo d'occhio ! - Copyright ORBIFLY Dicembre 2007 - Disclaimer

ORBIFLY MET'MAP TEAM :

Programmazione e sviluppo : Alexandra Zaïnal
Concezione e sviluppo : Baudouin d'Aumeries
Co-Programmazione e sviluppo : Marc-Olivier Méhu
Supporto tecnico e logistico : Manuel Goepfert
Aiuto per la traduzione : Arnaldo La Scala

Contatto : metmap@orbifly.com




FONTI E CREDITI :

   NOAA